Terminal Aerodrome Forecast
Issued by NWS

Home | Current Version | Previous Version | Graphics & Text | Print | Product List | Glossary On
Versions: 1 2 3 4 5 6 7 8 9 10 11 12 13 14 15 16 17 18 19
052
FTUS43 KIWX 110520
TAFSBN
TAF
KSBN 110520Z 1106/1206 27008KT 3SM -SHSN SCT025 OVC040
      TEMPO 1106/1110 1SM -SHSN OVC025
     FM112100 29008KT P6SM -SHSN BKN030
     FM120000 25005KT P6SM BKN100=

USA.gov is the U.S. government's official web portal to all federal, state and local government web resources and services.